aviador You're here:

PAVL Decoded Metar

KIVALINA in AK, USA
Report Time2017-07-26 03:53:00
UTC Time2017-07-26 04:39:03
Flight Rules vfr VFR
Wind360° at 12 kt
W.Decomp.*RWY 30: 8.5 kt HW 8.5 kt RCW
Visibility9999 m
Phenomena:N/A
Clouds:Few 019 Hf
Scattered 024 Hf
Overcast 032 Hf
Expected CloudBase > 800 ft AGL from Temp-Dew spread
Ceiling3,200 ft
Temp13°C (ISA -2)
Dew Point11°C (88% RH)
AAT9.0°C
QNH1012 hPa
Density Alt-16 ft
Elevation10 ft
Report Wrong Elevation
Raw Report
PAVL 260353Z AUTO 36012KT 10SM FEW019 SCT024 OVC032 13/11 A2987
RMK AO2 SLP116 T01330111 TSNO PNO $=

Extra information for PAVL:More info

Metar Taf Metar & Taf Last 4 Metars F.Rules Stats Wind Profile Meteogram Temp Stats Airport Information Weather charts Add Link Nearby VenuesMetar ALERT Operation Metar Decoded Social comments

AIRNAV info for PAVL